Terminal Aerodrome Forecast
Issued by NWS Memphis, TN

Home | Current Version | Previous Version | Text Only | Print | Product List | Glossary On
Versions: 1 2 3 4 5 6 7 8 9 10 11 12 13 14 15
265
FTUS44 KMEG 191725
TAFJBR
TAF
KJBR 191725Z 1918/2018 22006KT P6SM SCT045
     FM200000 19004KT P6SM FEW250
     FM200800 20004KT 6SM BR FEW250
     FM201200 20007KT P6SM FEW250=

USA.gov is the U.S. government's official web portal to all federal, state and local government web resources and services.